Time;durP1;ratioP1;P1;durP2;ratioP2;P2;SDS_P1;SDS_P2;PMS_P1;PMS_P2;Temp;Humidity;BMP_temperature;BMP_pressure;BME280_temperature;BME280_humidity;BME280_pressure;Samples;Min_cycle;Max_cycle;Signal;HPM_P1;HPM_P2
2022/09/11 00:01:28;;;;;;;12.95;3.25;;;18.20;99.90;;;;;;5030794;28;20045;-69
2022/09/11 00:08:17;;;;;;;15.05;2.97;;;18.20;99.90;;;;;;5031357;28;20507;-69
2022/09/11 00:11:21;;;;;;;13.65;2.80;;;18.20;99.90;;;;;;5031349;28;20040;-70
2022/09/11 00:14:27;;;;;;;15.98;3.10;;;18.20;99.90;;;;;;5030892;28;20052;-69
2022/09/11 00:17:50;;;;;;;16.38;3.30;;;18.20;99.90;;;;;;5031094;28;20068;-70
2022/09/11 00:21:12;;;;;;;10.13;2.47;;;18.20;99.90;;;;;;5031203;28;20040;-69
2022/09/11 00:24:16;;;;;;;15.48;2.80;;;18.10;99.90;;;;;;5030462;28;20408;-70
2022/09/11 00:27:20;;;;;;;12.75;2.22;;;18.10;99.90;;;;;;5030990;28;20045;-69
2022/09/11 00:30:24;;;;;;;22.30;3.58;;;18.10;99.90;;;;;;5031357;28;20053;-70
2022/09/11 00:33:28;;;;;;;21.48;3.65;;;18.00;99.90;;;;;;5030203;28;20072;-69
2022/09/11 00:36:36;;;;;;;7.22;1.88;;;18.00;99.90;;;;;;5031136;28;20060;-70
2022/09/11 00:39:41;;;;;;;11.90;2.78;;;17.90;99.90;;;;;;5030777;28;20543;-70
2022/09/11 00:42:52;;;;;;;11.15;2.45;;;17.80;99.90;;;;;;5030470;28;20048;-70
2022/09/11 00:46:15;;;;;;;31.73;3.78;;;17.80;99.90;;;;;;5030870;28;20116;-70
2022/09/11 00:49:29;;;;;;;15.75;2.67;;;17.70;99.90;;;;;;5030770;28;20128;-70
2022/09/11 00:53:13;;;;;;;14.25;2.92;;;17.70;99.90;;;;;;5030299;28;20037;-70
2022/09/11 00:59:46;;;;;;;37.08;4.65;;;17.60;99.90;;;;;;5029912;28;20052;-70
2022/09/11 01:02:52;;;;;;;14.00;2.72;;;17.60;99.90;;;;;;5030240;28;20040;-70
2022/09/11 01:05:57;;;;;;;17.08;2.35;;;17.60;99.90;;;;;;5030375;28;20056;-69
2022/09/11 01:09:03;;;;;;;11.75;2.70;;;17.70;99.90;;;;;;5030452;28;20053;-70
2022/09/11 01:12:37;;;;;;;14.25;2.80;;;17.80;99.90;;;;;;5030155;28;20044;-69
2022/09/11 01:16:12;;;;;;;13.45;2.35;;;17.90;99.90;;;;;;5029615;28;20048;-70
2022/09/11 01:19:36;;;;;;;11.15;2.42;;;17.90;99.90;;;;;;5030339;28;20032;-69
2022/09/11 01:22:50;;;;;;;16.63;2.65;;;17.90;99.90;;;;;;5030372;28;20392;-70
2022/09/11 01:26:00;;;;;;;15.40;2.50;;;17.90;99.90;;;;;;5029904;28;20041;-69
2022/09/11 01:29:24;;;;;;;11.25;2.50;;;17.90;99.90;;;;;;5029622;28;20036;-70
2022/09/11 01:32:41;;;;;;;16.35;2.53;;;17.90;99.90;;;;;;5029982;28;20044;-70
2022/09/11 01:36:05;;;;;;;15.32;2.17;;;18.00;99.90;;;;;;5030106;28;20380;-70
2022/09/11 01:39:12;;;;;;;12.45;2.65;;;18.00;99.90;;;;;;5030154;28;20367;-69
2022/09/11 01:42:38;;;;;;;18.65;2.35;;;18.00;99.90;;;;;;5029925;28;20052;-70
2022/09/11 01:45:46;;;;;;;11.00;2.15;;;18.00;99.90;;;;;;5028913;28;20511;-70
2022/09/11 01:49:01;;;;;;;7.70;2.00;;;17.90;99.90;;;;;;5028692;28;20045;-70
2022/09/11 01:52:14;;;;;;;7.32;1.80;;;17.80;99.90;;;;;;5028408;28;20049;-69
2022/09/11 01:55:27;;;;;;;12.90;2.05;;;17.80;99.90;;;;;;5029597;28;20395;-69
2022/09/11 01:58:35;;;;;;;17.25;2.95;;;17.90;99.90;;;;;;5028891;28;20384;-69
2022/09/11 02:02:05;;;;;;;14.02;2.53;;;17.70;99.90;;;;;;5029695;28;20044;-69
2022/09/11 02:05:15;;;;;;;19.95;2.80;;;17.60;99.90;;;;;;5028137;28;20052;-69
2022/09/11 02:08:57;;;;;;;11.52;2.08;;;17.60;99.90;;;;;;5028564;28;20073;-69
2022/09/11 02:12:10;;;;;;;14.68;3.05;;;17.50;99.90;;;;;;5032572;28;20044;-70
2022/09/11 02:18:46;;;;;;;11.07;2.67;;;17.60;99.90;;;;;;5032037;28;20547;-69
2022/09/11 02:21:51;;;;;;;10.85;2.28;;;17.50;99.90;;;;;;5032458;28;20053;-69
2022/09/11 02:24:55;;;;;;;10.45;2.45;;;17.40;99.90;;;;;;5031990;28;20041;-70
2022/09/11 02:27:59;;;;;;;12.88;2.20;;;17.30;99.90;;;;;;5033290;28;20057;-69
2022/09/11 02:31:06;;;;;;;12.93;2.33;;;17.20;99.90;;;;;;5032215;28;20044;-69
2022/09/11 02:34:13;;;;;;;10.85;2.35;;;17.20;99.90;;;;;;5031608;28;20037;-69
2022/09/11 02:37:35;;;;;;;17.33;2.55;;;17.10;99.90;;;;;;5032686;28;20052;-69
2022/09/11 02:41:22;;;;;;;8.02;2.50;;;17.00;99.90;;;;;;5032639;28;20610;-69
2022/09/11 02:45:01;;;;;;;16.58;3.20;;;16.90;99.90;;;;;;5031127;28;20032;-70
2022/09/11 02:48:16;;;;;;;8.68;2.22;;;16.90;99.90;;;;;;5031962;28;20101;-69
2022/09/11 02:51:21;;;;;;;13.43;2.47;;;16.80;99.90;;;;;;5031955;28;20507;-70
2022/09/11 02:54:50;;;;;;;15.55;3.00;;;16.70;99.90;;;;;;5031758;28;20040;-69
2022/09/11 02:58:09;;;;;;;9.68;2.28;;;16.70;99.90;;;;;;5031773;28;20048;-70
2022/09/11 03:01:15;;;;;;;10.38;2.70;;;16.60;99.90;;;;;;5031398;28;20049;-69
2022/09/11 03:04:21;;;;;;;14.80;2.55;;;16.60;99.90;;;;;;5031535;28;20052;-69
2022/09/11 03:07:25;;;;;;;10.50;2.05;;;16.60;99.90;;;;;;5031657;28;20392;-70
2022/09/11 03:10:29;;;;;;;17.05;3.20;;;16.60;99.90;;;;;;5031787;28;20052;-70
2022/09/11 03:13:35;;;;;;;12.02;2.13;;;16.60;99.90;;;;;;5031457;28;20061;-69
2022/09/11 03:16:59;;;;;;;13.35;2.22;;;16.60;99.90;;;;;;5031185;28;20049;-69
2022/09/11 03:20:21;;;;;;;9.88;2.00;;;16.60;99.90;;;;;;5031297;28;20040;-70
2022/09/11 03:23:26;;;;;;;15.73;2.67;;;16.60;99.90;;;;;;5030988;28;20068;-69
2022/09/11 03:26:34;;;;;;;18.30;2.72;;;16.60;99.90;;;;;;5031455;28;20052;-70
2022/09/11 03:29:39;;;;;;;14.20;2.30;;;16.60;99.90;;;;;;5031677;28;20044;-69
2022/09/11 03:32:44;;;;;;;15.50;2.10;;;16.60;99.90;;;;;;5030757;28;20044;-70
2022/09/11 03:35:50;;;;;;;11.77;2.72;;;16.60;99.90;;;;;;5031060;28;20059;-69
2022/09/11 03:38:55;;;;;;;14.10;2.67;;;16.60;99.90;;;;;;5031200;28;20495;-70
2022/09/11 03:42:00;;;;;;;11.98;2.50;;;16.50;99.90;;;;;;5032176;28;20056;-70
2022/09/11 03:45:04;;;;;;;13.80;2.22;;;16.50;99.90;;;;;;5030541;28;20060;-69
2022/09/11 03:48:10;;;;;;;15.77;2.58;;;16.50;99.90;;;;;;5030794;28;20304;-70
2022/09/11 03:51:16;;;;;;;10.95;2.65;;;16.50;99.90;;;;;;5030684;28;20049;-70
2022/09/11 03:57:43;;;;;;;12.02;2.40;;;16.50;99.90;;;;;;5031478;28;20049;-70
2022/09/11 04:00:48;;;;;;;12.70;2.60;;;16.50;99.90;;;;;;5031065;28;20052;-70
2022/09/11 04:03:53;;;;;;;15.27;2.38;;;16.50;99.90;;;;;;5030995;28;20037;-69
2022/09/11 04:07:15;;;;;;;18.73;2.92;;;16.50;99.90;;;;;;5031839;28;20040;-69
2022/09/11 04:13:43;;;;;;;14.13;2.38;;;16.40;99.90;;;;;;5030558;28;20412;-70
2022/09/11 04:16:52;;;;;;;16.10;2.38;;;16.40;99.90;;;;;;5030410;28;20052;-70
2022/09/11 04:19:57;;;;;;;14.93;2.42;;;16.50;99.90;;;;;;5030380;28;20052;-69
2022/09/11 04:23:20;;;;;;;12.40;2.20;;;16.60;99.90;;;;;;5030549;28;20048;-69
2022/09/11 04:26:27;;;;;;;11.50;2.55;;;16.70;99.90;;;;;;5030239;28;20056;-70
2022/09/11 04:29:36;;;;;;;13.73;2.17;;;16.80;99.90;;;;;;5030066;28;20487;-70
2022/09/11 04:32:40;;;;;;;7.80;2.10;;;16.80;99.90;;;;;;5030108;28;20053;-70
2022/09/11 04:35:44;;;;;;;18.05;2.80;;;16.70;99.90;;;;;;5030344;28;20384;-69
2022/09/11 04:38:54;;;;;;;15.05;3.50;;;16.60;99.90;;;;;;5030352;28;20040;-69
2022/09/11 04:41:59;;;;;;;12.98;2.65;;;16.40;99.90;;;;;;5030332;28;20523;-69
2022/09/11 04:45:05;;;;;;;7.18;2.03;;;16.30;99.90;;;;;;5030051;28;20507;-69
2022/09/11 04:48:10;;;;;;;14.32;2.80;;;16.20;99.90;;;;;;5030441;28;20052;-70
2022/09/11 04:51:27;;;;;;;14.20;2.95;;;16.10;99.90;;;;;;5030164;28;20515;-70
2022/09/11 04:54:35;;;;;;;13.30;2.47;;;16.10;99.90;;;;;;5029784;28;20048;-70
2022/09/11 04:57:42;;;;;;;13.35;2.38;;;16.10;99.90;;;;;;5029519;28;20509;-70
2022/09/11 05:01:10;;;;;;;11.10;2.35;;;16.20;99.90;;;;;;5029563;28;20064;-70
2022/09/11 05:04:17;;;;;;;6.53;2.22;;;16.30;99.90;;;;;;5029943;28;20049;-70
2022/09/11 05:07:41;;;;;;;16.67;3.30;;;16.40;99.90;;;;;;5029902;28;20060;-70
2022/09/11 05:10:47;;;;;;;13.18;3.00;;;16.40;99.90;;;;;;5018236;28;20041;-70
2022/09/11 05:13:53;;;;;;;15.25;2.60;;;16.40;99.90;;;;;;5029766;28;20052;-70
2022/09/11 05:17:00;;;;;;;22.58;3.10;;;16.50;99.90;;;;;;5029296;28;20056;-70
2022/09/11 05:20:07;;;;;;;21.40;2.97;;;16.50;99.90;;;;;;5029656;28;20040;-70
2022/09/11 05:23:11;;;;;;;12.85;2.60;;;16.60;99.90;;;;;;5029198;28;20052;-69
2022/09/11 05:26:18;;;;;;;10.13;2.03;;;16.60;99.90;;;;;;5029789;28;20048;-70
2022/09/11 05:32:53;;;;;;;12.43;2.33;;;16.80;99.90;;;;;;5029706;28;20045;-70
2022/09/11 05:36:17;;;;;;;12.02;2.55;;;16.80;99.90;;;;;;5029738;28;20448;-70
2022/09/11 05:39:21;;;;;;;12.18;2.55;;;16.80;99.90;;;;;;5029461;28;20036;-70
2022/09/11 05:42:27;;;;;;;9.68;1.85;;;16.90;99.90;;;;;;5029796;28;20044;-70
2022/09/11 05:48:55;;;;;;;;;;;17.10;99.90;;;;;;5033925;28;20048;-70
2022/09/11 05:51:59;;;;;;;11.60;2.17;;;17.20;99.90;;;;;;5033451;28;19913;-69
2022/09/11 05:55:04;;;;;;;13.80;2.33;;;17.30;99.90;;;;;;5033226;28;20048;-70
2022/09/11 05:58:08;;;;;;;7.97;1.80;;;17.30;99.90;;;;;;5034279;28;20044;-70
2022/09/11 06:01:15;;;;;;;10.73;2.78;;;17.30;99.90;;;;;;5034487;28;20517;-70
2022/09/11 06:04:40;;;;;;;10.75;1.92;;;17.40;99.90;;;;;;5032778;28;20052;-70
2022/09/11 06:07:45;;;;;;;14.15;2.25;;;17.60;99.90;;;;;;5033304;28;20040;-70
2022/09/11 06:11:08;;;;;;;17.95;2.50;;;17.70;99.90;;;;;;5034165;28;20036;-70
2022/09/11 06:14:13;;;;;;;10.95;1.95;;;17.80;99.90;;;;;;5032806;28;20053;-70
2022/09/11 06:20:41;;;;;;;11.60;2.35;;;17.80;99.90;;;;;;5032413;28;20045;-70
2022/09/11 06:23:53;;;;;;;9.70;2.47;;;17.90;99.90;;;;;;5032949;28;20447;-70
2022/09/11 06:26:58;;;;;;;6.60;2.03;;;18.00;99.90;;;;;;5032847;28;20048;-69
2022/09/11 06:30:04;;;;;;;8.60;1.85;;;18.20;99.90;;;;;;5032586;28;20048;-69
2022/09/11 06:33:12;;;;;;;8.50;1.65;;;18.40;99.90;;;;;;5032552;28;20049;-70
2022/09/11 06:36:22;;;;;;;11.82;2.08;;;18.60;99.90;;;;;;5032171;28;20113;-69
2022/09/11 06:39:27;;;;;;;18.48;2.60;;;18.90;99.90;;;;;;5031992;28;20041;-70
2022/09/11 06:42:34;;;;;;;9.13;2.67;;;19.10;99.90;;;;;;5032689;28;20036;-70
2022/09/11 06:45:39;;;;;;;11.90;2.28;;;19.00;99.90;;;;;;5033499;28;20056;-70
2022/09/11 06:48:46;;;;;;;8.77;1.90;;;19.20;99.90;;;;;;5032883;28;20056;-70
2022/09/11 06:51:51;;;;;;;12.45;2.08;;;19.40;99.90;;;;;;5032052;28;20092;-70
2022/09/11 06:54:56;;;;;;;13.23;1.80;;;19.60;99.90;;;;;;5032123;28;20040;-70
2022/09/11 06:58:01;;;;;;;10.93;2.20;;;19.00;99.90;;;;;;5031224;28;20048;-70
2022/09/11 07:04:50;;;;;;;11.02;2.63;;;19.00;99.90;;;;;;5032431;28;20048;-70
2022/09/11 07:07:55;;;;;;;10.18;1.92;;;19.50;99.90;;;;;;5032119;28;20408;-70
2022/09/11 07:14:42;;;;;;;7.97;1.92;;;20.50;99.90;;;;;;5031837;28;20072;-70
2022/09/11 07:17:51;;;;;;;13.15;1.92;;;21.10;99.90;;;;;;5031688;28;20052;-70
2022/09/11 07:21:17;;;;;;;8.05;2.20;;;21.50;99.90;;;;;;5031935;28;20052;-70
2022/09/11 07:24:22;;;;;;;12.30;2.22;;;22.20;99.90;;;;;;5031196;28;20037;-70
2022/09/11 07:27:30;;;;;;;12.10;1.80;;;23.40;99.90;;;;;;5031504;28;20033;-70
2022/09/11 07:30:37;;;;;;;9.48;2.00;;;25.00;99.90;;;;;;5031581;28;20499;-70
2022/09/11 07:33:44;;;;;;;10.13;2.35;;;26.30;99.90;;;;;;5030858;28;20408;-70
2022/09/11 07:36:50;;;;;;;14.90;2.05;;;27.00;99.90;;;;;;5031503;28;20048;-70
2022/09/11 07:39:55;;;;;;;9.43;1.67;;;26.60;99.90;;;;;;5019899;28;20044;-70
2022/09/11 07:46:26;;;;;;;12.63;2.40;;;29.20;99.90;;;;;;5031649;28;20139;-70
2022/09/11 07:49:31;;;;;;;11.65;2.45;;;29.10;99.90;;;;;;5030953;28;20048;-71
2022/09/11 07:52:54;;;;;;;7.47;1.80;;;28.10;99.90;;;;;;5031179;28;20495;-71
2022/09/11 07:56:10;;;;;;;8.73;2.03;;;29.90;99.90;;;;;;5031487;28;20044;-71
2022/09/11 07:59:33;;;;;;;8.68;2.22;;;31.60;98.70;;;;;;5030867;28;20511;-71
2022/09/11 08:02:38;;;;;;;12.18;1.75;;;33.10;97.00;;;;;;5031513;28;20052;-71
2022/09/11 08:05:42;;;;;;;10.95;2.45;;;33.30;95.80;;;;;;5031211;28;20048;-71
2022/09/11 08:09:00;;;;;;;7.78;1.85;;;32.10;96.00;;;;;;5030783;28;20052;-71
2022/09/11 08:12:06;;;;;;;8.93;2.00;;;30.90;97.20;;;;;;5030869;28;20052;-71
2022/09/11 08:15:13;;;;;;;9.77;1.73;;;32.10;96.60;;;;;;5030533;28;20495;-71
2022/09/11 08:18:36;;;;;;;7.43;1.92;;;33.60;94.90;;;;;;5031715;28;20507;-71
2022/09/11 08:21:41;;;;;;;7.78;1.73;;;34.70;93.90;;;;;;5019006;28;20053;-71
2022/09/11 08:24:45;;;;;;;6.47;1.50;;;36.30;92.50;;;;;;5030404;28;20048;-71
2022/09/11 08:27:52;;;;;;;8.23;1.70;;;37.20;91.20;;;;;;5030214;28;20060;-69
2022/09/11 08:31:00;;;;;;;9.15;1.48;;;38.70;88.90;;;;;;5030173;28;20104;-71
2022/09/11 08:34:05;;;;;;;8.07;1.60;;;38.60;87.90;;;;;;5030134;28;20057;-71
2022/09/11 08:37:09;;;;;;;9.32;1.40;;;39.20;85.90;;;;;;5030064;28;20044;-71
2022/09/11 08:40:14;;;;;;;5.65;1.77;;;39.00;85.00;;;;;;5030579;28;20049;-72
2022/09/11 08:43:34;;;;;;;9.65;1.85;;;40.20;83.80;;;;;;5018688;28;20052;-71
2022/09/11 08:46:45;;;;;;;6.47;1.80;;;41.20;80.50;;;;;;5031359;28;20387;-71
2022/09/11 08:50:26;;;;;;;8.93;1.95;;;41.80;79.50;;;;;;5030399;28;20049;-71
2022/09/11 08:53:33;;;;;;;8.50;1.67;;;39.80;81.00;;;;;;5029508;28;20521;-71
2022/09/11 08:56:37;;;;;;;9.43;1.70;;;38.30;81.40;;;;;;5030201;28;20527;-71
2022/09/11 08:59:54;;;;;;;8.18;1.98;;;39.60;81.40;;;;;;5030317;28;20052;-71
2022/09/11 09:03:23;;;;;;;9.95;1.70;;;40.60;79.60;;;;;;5030695;28;20052;-70
2022/09/11 09:06:45;;;;;;;6.90;1.40;;;41.20;78.20;;;;;;5030921;28;20053;-71
2022/09/11 09:10:27;;;;;;;11.70;2.08;;;40.10;78.70;;;;;;5029666;28;20048;-71
2022/09/11 09:13:56;;;;;;;7.85;1.88;;;36.50;81.40;;;;;;5029395;28;20048;-70
2022/09/11 09:17:05;;;;;;;;;;;37.00;84.20;;;;;;5031475;28;20056;-71
2022/09/11 09:20:21;;;;;;;10.63;2.22;;;37.90;80.90;;;;;;5029045;28;20284;-71
2022/09/11 09:23:36;;;;;;;10.32;1.77;;;39.90;80.70;;;;;;5029118;28;20040;-71
2022/09/11 09:26:40;;;;;;;6.25;1.75;;;40.70;79.80;;;;;;5030105;28;20048;-72
2022/09/11 09:30:26;;;;;;;6.90;1.45;;;42.40;78.20;;;;;;5030708;28;20499;-71
2022/09/11 09:33:45;;;;;;;6.78;1.50;;;44.20;73.40;;;;;;5029782;28;20392;-71
2022/09/11 09:37:02;;;;;;;9.70;1.83;;;44.50;72.60;;;;;;5029710;28;20040;-71
2022/09/11 09:40:09;;;;;;;10.60;2.03;;;45.30;71.90;;;;;;5030125;28;20483;-72
2022/09/11 09:43:41;;;;;;;7.35;1.30;;;45.80;70.10;;;;;;5029500;28;20402;-71
2022/09/11 09:46:47;;;;;;;8.80;1.90;;;46.40;68.50;;;;;;5030238;28;20211;-72
2022/09/11 09:49:51;;;;;;;9.43;1.80;;;46.30;68.10;;;;;;5029338;28;20493;-71
2022/09/11 09:53:07;;;;;;;7.40;1.33;;;46.90;67.20;;;;;;5030395;28;20424;-71
2022/09/11 09:56:15;;;;;;;5.65;1.60;;;47.30;65.90;;;;;;5030406;28;20052;-72
2022/09/11 09:59:40;;;;;;;7.88;1.90;;;47.20;65.80;;;;;;5030685;28;20036;-71
2022/09/11 10:03:22;;;;;;;6.13;1.15;;;47.80;65.40;;;;;;5030144;28;20480;-71
2022/09/11 10:06:27;;;;;;;7.45;1.70;;;47.60;63.90;;;;;;5029939;28;20036;-71
2022/09/11 10:09:32;;;;;;;7.03;1.67;;;46.50;64.20;;;;;;5030152;28;20044;-71
2022/09/11 10:12:35;;;;;;;7.05;1.50;;;45.10;64.90;;;;;;5030102;28;20044;-70
2022/09/11 10:15:41;;;;;;;5.72;1.45;;;43.80;65.60;;;;;;5030027;28;20052;-70
2022/09/11 10:18:46;;;;;;;8.52;1.65;;;43.10;65.50;;;;;;5030519;28;20044;-69
2022/09/11 10:21:50;;;;;;;5.32;1.58;;;43.30;66.80;;;;;;5030183;28;20044;-70
2022/09/11 10:25:09;;;;;;;7.88;1.90;;;44.20;66.20;;;;;;5030188;28;20044;-70
2022/09/11 10:28:18;;;;;;;11.60;1.58;;;44.50;65.60;;;;;;5030052;28;20495;-69
2022/09/11 10:31:49;;;;;;;6.13;1.30;;;43.40;65.40;;;;;;5029647;28;20041;-70
2022/09/11 10:34:55;;;;;;;9.65;1.80;;;42.40;66.10;;;;;;5033942;28;20052;-69
2022/09/11 10:38:16;;;;;;;8.00;2.05;;;41.20;65.70;;;;;;5033708;28;20056;-71
2022/09/11 10:41:33;;;;;;;6.18;1.63;;;43.50;65.90;;;;;;5033372;28;20064;-70
2022/09/11 10:44:42;;;;;;;7.00;1.67;;;41.20;64.00;;;;;;5033399;28;20392;-70
2022/09/11 10:47:49;;;;;;;7.30;1.45;;;41.30;67.00;;;;;;5033415;28;20056;-71
2022/09/11 10:51:13;;;;;;;8.27;2.10;;;42.20;66.80;;;;;;5033561;28;20040;-71
2022/09/11 10:54:45;;;;;;;6.40;1.25;;;43.40;65.00;;;;;;5032888;28;20431;-70
2022/09/11 10:58:12;;;;;;;5.63;1.40;;;41.30;65.40;;;;;;5033305;28;20040;-71
2022/09/11 11:05:03;;;;;;;6.78;1.35;;;43.30;65.30;;;;;;5032650;28;20052;-71
2022/09/11 11:08:13;;;;;;;5.78;1.75;;;44.80;63.90;;;;;;5033153;28;20491;-71
2022/09/11 11:11:31;;;;;;;5.57;1.38;;;44.80;62.00;;;;;;5033378;28;20507;-69
2022/09/11 11:14:51;;;;;;;9.50;1.42;;;38.70;65.30;;;;;;5032488;28;20036;-69
2022/09/11 11:18:14;;;;;;;8.07;1.30;;;38.60;68.10;;;;;;5033021;28;20053;-69
2022/09/11 11:21:43;;;;;;;5.65;1.40;;;38.50;67.40;;;;;;5032756;28;20049;-69
2022/09/11 11:25:07;;;;;;;5.63;1.33;;;37.80;67.50;;;;;;5031970;28;20048;-70
2022/09/11 11:28:29;;;;;;;6.55;1.50;;;39.00;68.30;;;;;;5032994;28;20052;-70
2022/09/11 11:35:32;;;;;;;7.47;1.98;;;42.60;65.50;;;;;;5031761;28;20048;-70
2022/09/11 11:39:00;;;;;;;9.27;2.17;;;44.00;63.70;;;;;;5032419;28;20037;-69
2022/09/11 11:42:37;;;;;;;4.35;1.15;;;38.60;66.20;;;;;;5032318;28;20381;-71
2022/09/11 11:46:10;;;;;;;5.63;1.63;;;39.10;67.60;;;;;;5032117;28;20070;-70
2022/09/11 11:49:18;;;;;;;6.25;1.15;;;41.30;66.20;;;;;;5032731;28;20503;-71
2022/09/11 11:52:33;;;;;;;7.68;1.80;;;43.40;63.10;;;;;;5032192;28;20408;-71
2022/09/11 11:55:59;;;;;;;6.15;1.20;;;43.60;62.40;;;;;;5032061;28;20045;-71
2022/09/11 11:59:30;;;;;;;7.40;1.70;;;44.80;61.40;;;;;;5032310;28;20389;-70
2022/09/11 12:02:42;;;;;;;4.82;1.40;;;46.40;61.40;;;;;;5032026;28;20080;-71
2022/09/11 12:05:46;;;;;;;7.00;1.30;;;46.20;61.10;;;;;;5032391;28;20048;-70
2022/09/11 12:08:50;;;;;;;4.47;1.65;;;45.90;61.00;;;;;;5032226;28;20044;-70
2022/09/11 12:11:54;;;;;;;4.78;1.30;;;44.50;60.30;;;;;;5031718;28;20042;-70
2022/09/11 12:18:31;;;;;;;5.72;1.63;;;42.20;62.80;;;;;;5032057;28;20121;-70
2022/09/11 12:21:41;;;;;;;6.13;1.50;;;41.60;64.00;;;;;;5031547;28;20527;-71
2022/09/11 12:24:51;;;;;;;5.18;1.42;;;41.70;64.00;;;;;;5031524;28;20052;-71
2022/09/11 12:28:44;;;;;;;5.00;1.33;;;42.90;62.80;;;;;;5031476;28;20044;-70
2022/09/11 12:32:22;;;;;;;4.03;1.33;;;42.10;62.70;;;;;;5031271;28;20064;-70
2022/09/11 12:35:38;;;;;;;4.50;1.40;;;43.20;62.70;;;;;;5031936;28;20451;-71
2022/09/11 12:38:52;;;;;;;7.32;1.42;;;41.30;62.50;;;;;;5030442;28;20279;-70
2022/09/11 12:42:24;;;;;;;5.80;1.15;;;42.90;62.10;;;;;;5031644;28;20041;-70
2022/09/11 12:45:31;;;;;;;7.68;2.03;;;40.50;64.10;;;;;;5031249;28;20510;-70
2022/09/11 12:49:05;;;;;;;4.93;1.45;;;39.10;64.90;;;;;;5031260;28;20113;-69
2022/09/11 12:52:24;;;;;;;13.05;1.52;;;36.30;68.90;;;;;;5031615;28;20068;-70
2022/09/11 12:59:42;;;;;;;3.95;1.30;;;40.20;65.10;;;;;;5030942;28;20146;-71
2022/09/11 13:02:52;;;;;;;4.13;1.15;;;41.40;63.00;;;;;;5031130;28;20491;-71
2022/09/11 13:06:01;;;;;;;6.18;1.42;;;43.00;61.20;;;;;;5030840;28;20036;-71
2022/09/11 13:09:15;;;;;;;3.47;1.08;;;43.80;61.10;;;;;;5031216;28;20064;-70
2022/09/11 13:12:48;;;;;;;4.72;1.67;;;42.60;62.60;;;;;;5030605;28;20040;-71
2022/09/11 13:15:56;;;;;;;6.07;1.60;;;43.90;60.90;;;;;;5029958;28;20515;-70
2022/09/11 13:19:12;;;;;;;6.13;1.40;;;44.40;60.80;;;;;;5029692;28;20048;-71
2022/09/11 13:22:27;;;;;;;5.45;1.50;;;43.50;61.70;;;;;;5030907;28;20036;-71
2022/09/11 13:25:55;;;;;;;5.57;1.50;;;44.10;61.60;;;;;;5029711;28;20053;-71
2022/09/11 13:29:00;;;;;;;6.25;1.50;;;44.10;60.60;;;;;;5030673;28;20507;-72
2022/09/11 13:32:23;;;;;;;5.00;1.60;;;43.50;61.50;;;;;;5030511;28;20117;-70
2022/09/11 13:35:28;;;;;;;8.60;1.60;;;43.40;61.20;;;;;;5030125;28;20431;-69
2022/09/11 13:38:35;;;;;;;6.20;1.42;;;37.30;64.00;;;;;;5031123;28;20044;-71
2022/09/11 13:41:45;;;;;;;7.88;1.40;;;39.10;64.50;;;;;;5030845;28;20044;-71
2022/09/11 13:44:51;;;;;;;8.02;1.63;;;40.60;64.10;;;;;;5029699;28;20068;-71
2022/09/11 13:47:57;;;;;;;6.32;1.58;;;41.40;63.40;;;;;;5030704;28;20048;-72
2022/09/11 13:51:24;;;;;;;7.00;1.38;;;41.70;62.80;;;;;;5030041;28;20040;-73
2022/09/11 13:54:50;;;;;;;5.03;1.30;;;42.00;62.50;;;;;;5029885;28;20044;-70
2022/09/11 13:58:02;;;;;;;4.25;1.35;;;42.20;62.40;;;;;;5030274;28;20491;-72
2022/09/11 14:01:11;;;;;;;5.18;1.60;;;40.70;62.90;;;;;;5030150;28;20048;-70
2022/09/11 14:04:16;;;;;;;10.52;1.83;;;39.30;64.10;;;;;;5030093;28;20048;-70
2022/09/11 14:07:23;;;;;;;4.75;1.45;;;38.50;65.70;;;;;;5031608;28;20044;-72
2022/09/11 14:10:32;;;;;;;4.00;1.42;;;38.80;65.80;;;;;;5033957;28;20064;-70
2022/09/11 14:13:51;;;;;;;5.20;1.30;;;39.20;64.40;;;;;;5033877;28;20044;-70
2022/09/11 14:17:00;;;;;;;5.53;1.70;;;38.20;64.80;;;;;;5021849;28;20392;-69
2022/09/11 14:23:28;;;;;;;7.28;1.65;;;35.60;67.30;;;;;;5033156;28;20056;-69
2022/09/11 14:26:34;;;;;;;10.57;1.42;;;35.00;68.90;;;;;;5034161;28;20052;-70
2022/09/11 14:29:51;;;;;;;6.95;1.60;;;35.30;68.50;;;;;;5033093;28;20048;-69
2022/09/11 14:33:06;;;;;;;5.78;1.10;;;35.10;67.80;;;;;;5033670;28;20048;-69
2022/09/11 14:36:18;;;;;;;5.63;1.42;;;34.60;67.80;;;;;;5033949;28;20040;-69
2022/09/11 14:39:44;;;;;;;5.82;1.75;;;34.40;70.10;;;;;;5033117;28;20579;-69
2022/09/11 14:42:49;;;;;;;8.68;1.60;;;34.60;69.60;;;;;;5033675;28;20040;-70
2022/09/11 14:49:15;;;;;;;4.40;1.38;;;33.80;70.60;;;;;;5033462;28;20534;-70
2022/09/11 14:52:23;;;;;;;4.75;1.85;;;33.50;71.50;;;;;;5021277;28;20044;-70
2022/09/11 14:55:27;;;;;;;7.63;2.00;;;33.40;71.80;;;;;;5033180;28;20511;-70
2022/09/11 14:58:31;;;;;;;6.65;1.60;;;33.20;72.00;;;;;;5033460;28;20053;-69
2022/09/11 15:01:35;;;;;;;6.50;1.70;;;33.00;72.80;;;;;;5033083;28;20595;-69
2022/09/11 15:04:58;;;;;;;9.75;1.70;;;32.90;72.00;;;;;;5033143;28;20503;-69
2022/09/11 15:08:02;;;;;;;6.60;1.45;;;32.90;71.70;;;;;;5033583;28;20053;-69
2022/09/11 15:11:06;;;;;;;6.55;1.60;;;33.00;72.10;;;;;;5032805;28;20066;-69
2022/09/11 15:14:13;;;;;;;4.82;1.63;;;33.00;72.20;;;;;;5031920;28;20125;-70
2022/09/11 15:17:18;;;;;;;7.63;1.48;;;33.00;72.10;;;;;;5031782;28;20052;-69
2022/09/11 15:20:26;;;;;;;4.57;1.58;;;33.10;71.90;;;;;;5032510;28;20057;-69
2022/09/11 15:23:30;;;;;;;6.30;1.30;;;32.90;73.50;;;;;;5032938;28;20049;-69
2022/09/11 15:26:36;;;;;;;6.97;1.52;;;32.60;73.40;;;;;;5032873;28;20385;-69
2022/09/11 15:29:41;;;;;;;5.72;1.50;;;32.30;73.00;;;;;;5032888;28;20040;-69
2022/09/11 15:32:47;;;;;;;3.53;1.30;;;32.00;73.90;;;;;;5032701;28;20044;-70
2022/09/11 15:36:10;;;;;;;8.55;1.45;;;31.80;74.70;;;;;;5032763;28;20471;-70
2022/09/11 15:39:16;;;;;;;3.92;1.20;;;31.90;74.80;;;;;;5032444;28;20044;-69
2022/09/11 15:42:40;;;;;;;5.95;1.50;;;31.80;74.90;;;;;;5032299;28;20388;-69
2022/09/11 15:46:10;;;;;;;6.70;1.85;;;31.70;75.00;;;;;;5029015;28;20044;-69
2022/09/11 15:49:39;;;;;;;4.15;1.30;;;31.50;74.80;;;;;;5025756;28;20045;-69
2022/09/11 15:52:44;;;;;;;8.43;1.77;;;31.10;75.70;;;;;;5031198;28;20121;-69
2022/09/11 15:55:47;;;;;;;5.60;1.65;;;30.80;76.30;;;;;;5038088;28;20491;-69
2022/09/11 15:58:51;;;;;;;6.43;1.48;;;30.80;76.60;;;;;;5030965;28;20052;-69
2022/09/11 16:01:58;;;;;;;6.57;1.73;;;30.60;76.20;;;;;;5037234;28;20124;-69
2022/09/11 16:05:02;;;;;;;6.55;1.52;;;30.60;76.50;;;;;;5031507;28;20534;-69
2022/09/11 16:08:06;;;;;;;7.53;1.67;;;30.50;76.50;;;;;;5031477;28;20503;-70
2022/09/11 16:11:10;;;;;;;7.38;1.48;;;30.30;77.20;;;;;;5032400;28;20048;-69
2022/09/11 16:14:19;;;;;;;8.00;1.45;;;30.10;77.90;;;;;;5031268;28;20048;-71
2022/09/11 16:17:29;;;;;;;5.55;1.60;;;29.90;78.10;;;;;;5031513;28;20041;-69
2022/09/11 16:20:33;;;;;;;4.40;1.23;;;29.90;78.40;;;;;;5031793;28;20041;-69
2022/09/11 16:23:39;;;;;;;4.88;1.52;;;29.80;79.20;;;;;;5031305;28;20047;-69
2022/09/11 16:26:44;;;;;;;3.45;1.55;;;29.50;79.20;;;;;;5031496;28;20036;-69
2022/09/11 16:29:48;;;;;;;5.95;1.40;;;29.20;80.00;;;;;;5031687;28;20052;-69
2022/09/11 16:33:10;;;;;;;4.40;1.52;;;29.00;80.40;;;;;;5031429;28;20056;-69
2022/09/11 16:36:18;;;;;;;5.70;1.80;;;28.80;80.50;;;;;;5031497;28;20049;-69
2022/09/11 16:39:22;;;;;;;12.77;1.98;;;28.50;81.60;;;;;;5030712;28;20052;-70
2022/09/11 16:42:28;;;;;;;5.22;1.52;;;28.30;81.90;;;;;;5030253;28;20048;-70
2022/09/11 16:46:11;;;;;;;9.07;1.98;;;28.00;82.20;;;;;;5031098;28;20388;-69
2022/09/11 16:49:34;;;;;;;7.65;1.95;;;27.70;82.60;;;;;;5031099;28;20041;-68
2022/09/11 16:52:40;;;;;;;5.07;1.70;;;27.60;83.90;;;;;;5031638;28;20503;-69
2022/09/11 16:56:07;;;;;;;6.20;1.50;;;27.30;84.40;;;;;;5030962;28;20060;-69
2022/09/11 16:59:11;;;;;;;9.38;1.75;;;27.10;84.90;;;;;;5030893;28;20037;-69
2022/09/11 17:02:15;;;;;;;5.75;1.80;;;27.00;85.00;;;;;;5030840;28;20113;-69
2022/09/11 17:08:43;;;;;;;4.38;1.50;;;27.00;85.80;;;;;;5031196;28;20044;-69
2022/09/11 17:12:05;;;;;;;9.80;2.78;;;26.80;85.90;;;;;;5030860;28;20052;-69
2022/09/11 17:15:28;;;;;;;10.27;2.17;;;26.80;87.00;;;;;;5030356;28;20044;-70
2022/09/11 17:18:32;;;;;;;8.98;2.33;;;26.60;86.20;;;;;;5030749;28;20040;-71
2022/09/11 17:21:36;;;;;;;8.40;2.40;;;26.50;86.60;;;;;;5030298;28;20503;-70
2022/09/11 17:24:41;;;;;;;8.18;2.15;;;26.40;87.10;;;;;;5030611;28;20052;-70
2022/09/11 17:27:45;;;;;;;3.22;1.65;;;26.20;87.20;;;;;;5030245;28;20404;-70
2022/09/11 17:30:49;;;;;;;6.88;1.85;;;26.10;87.70;;;;;;5029903;28;20053;-70
2022/09/11 17:33:53;;;;;;;11.30;2.22;;;25.90;88.30;;;;;;5030458;28;20523;-70
2022/09/11 17:40:40;;;;;;;;;;;25.60;90.50;;;;;;5031145;28;20381;-71
2022/09/11 17:43:44;;;;;;;9.23;1.92;;;25.40;91.00;;;;;;5034686;28;19916;-70